Time;durP1;ratioP1;P1;durP2;ratioP2;P2;SDS_P1;SDS_P2;PMS_P1;PMS_P2;Temp;Humidity;BMP_temperature;BMP_pressure;BME280_temperature;BME280_humidity;BME280_pressure;Samples;Min_cycle;Max_cycle;Signal;HPM_P1;HPM_P2
2023/01/15 00:02:26;;;;;;;2.08;1.98;;;;;;;5.16;70.87;100258.13;4410047;32;32806;-82
2023/01/15 00:04:54;;;;;;;2.70;1.58;;;;;;;5.26;70.67;100251.00;4403508;32;32637;-82
2023/01/15 00:07:21;;;;;;;2.30;2.10;;;;;;;5.32;70.71;100246.56;4415051;32;36716;-83
2023/01/15 00:09:49;;;;;;;2.22;2.08;;;;;;;5.10;70.82;100255.62;4412797;32;34093;-82
2023/01/15 00:12:17;;;;;;;3.00;2.42;;;;;;;5.19;70.54;100249.38;4398956;32;33449;-82
2023/01/15 00:14:45;;;;;;;2.47;1.52;;;;;;;5.42;70.31;100238.56;4392895;32;33806;-82
2023/01/15 00:17:12;;;;;;;0.93;0.93;;;;;;;5.33;70.65;100235.19;4401836;32;32955;-82
2023/01/15 00:19:40;;;;;;;1.67;1.52;;;;;;;5.30;70.35;100243.09;4396125;32;34011;-82
2023/01/15 00:22:07;;;;;;;2.92;2.58;;;;;;;5.39;69.70;100248.19;4389980;32;34143;-83
2023/01/15 00:27:40;;;;;;;1.17;1.17;;;;;;;5.00;70.92;100239.19;4417360;32;34535;-83
2023/01/15 00:30:11;;;;;;;1.58;1.48;;;;;;;5.13;70.86;100242.50;4394161;32;33959;-83
2023/01/15 00:32:40;;;;;;;0.62;0.62;;;;;;;5.05;70.44;100231.25;4401497;32;33820;-83
2023/01/15 00:35:13;;;;;;;0.45;0.45;;;;;;;5.34;69.31;100234.31;4387372;32;33606;-82
2023/01/15 00:37:41;;;;;;;3.40;2.42;;;;;;;5.11;69.85;100236.41;4388486;32;32673;-82
2023/01/15 00:40:11;;;;;;;0.88;0.88;;;;;;;5.10;70.48;100224.22;4402790;32;32920;-83
2023/01/15 00:42:39;;;;;;;0.77;0.77;;;;;;;5.12;70.50;100218.03;4401008;32;32895;-82
2023/01/15 00:45:09;;;;;;;0.57;0.57;;;;;;;4.97;70.06;100222.63;4400147;32;32709;-82
2023/01/15 00:47:42;;;;;;;0.80;0.80;;;;;;;5.27;69.46;100219.59;4413262;32;32264;-82
2023/01/15 00:50:12;;;;;;;2.22;2.08;;;;;;;5.16;69.15;100221.50;4400628;32;32721;-82
2023/01/15 00:52:40;;;;;;;1.75;1.65;;;;;;;5.22;69.37;100218.81;4400456;32;32996;-82
2023/01/15 00:55:08;;;;;;;1.05;0.93;;;;;;;5.11;69.27;100225.94;4398117;32;33467;-82
2023/01/15 00:57:35;;;;;;;3.33;3.12;;;;;;;5.14;69.00;100231.13;4383026;32;33052;-82
2023/01/15 01:00:04;;;;;;;0.70;0.70;;;;;;;4.96;69.32;100223.53;4378804;32;32776;-82
2023/01/15 01:02:31;;;;;;;0.98;0.57;;;;;;;5.05;69.01;100218.19;4373677;32;33120;-83
2023/01/15 01:05:00;;;;;;;1.75;1.65;;;;;;;4.80;69.63;100225.50;4399766;32;33463;-83
2023/01/15 01:07:30;;;;;;;0.17;0.17;;;;;;;4.52;70.46;100217.16;4392604;32;34734;-83
2023/01/15 01:09:58;;;;;;;4.43;2.00;;;;;;;4.78;69.69;100211.56;4392035;32;34674;-83
2023/01/15 01:12:25;;;;;;;1.27;1.27;;;;;;;4.98;68.74;100211.28;4399391;32;32450;-83
2023/01/15 01:14:54;;;;;;;0.32;0.32;;;;;;;3.72;73.13;100218.00;4384475;32;32715;-84
2023/01/15 01:17:22;;;;;;;0.30;0.30;;;;;;;4.07;71.99;100215.03;4378898;32;32575;-83
2023/01/15 01:19:51;;;;;;;0.30;0.30;;;;;;;3.87;72.75;100213.50;4379242;32;33241;-83
2023/01/15 01:22:18;;;;;;;0.40;0.40;;;;;;;4.00;71.71;100215.12;4396834;32;33621;-82
2023/01/15 01:24:46;;;;;;;0.30;0.30;;;;;;;4.01;71.95;100214.22;4378271;32;33590;-82
2023/01/15 01:27:15;;;;;;;0.77;0.77;;;;;;;4.11;72.23;100216.72;4390748;32;33766;-83
2023/01/15 01:29:43;;;;;;;5.93;1.33;;;;;;;4.35;71.53;100218.19;4378854;32;33045;-82
2023/01/15 01:32:10;;;;;;;3.03;1.48;;;;;;;4.27;71.28;100214.84;4391844;32;33916;-83
2023/01/15 01:34:38;;;;;;;0.13;0.13;;;;;;;4.51;70.68;100211.06;4396373;32;33390;-82
2023/01/15 01:37:06;;;;;;;1.23;1.02;;;;;;;4.41;70.48;100201.56;4390266;32;35113;-82
2023/01/15 01:39:33;;;;;;;0.10;0.10;;;;;;;4.25;71.13;100200.91;4391037;32;34729;-83
2023/01/15 01:42:01;;;;;;;0.50;0.50;;;;;;;4.20;71.53;100202.69;4396065;32;34157;-82
2023/01/15 01:44:32;;;;;;;1.23;1.12;;;;;;;3.82;72.84;100201.34;4395783;32;33979;-83
2023/01/15 01:47:01;;;;;;;0.45;0.45;;;;;;;4.07;72.21;100201.09;4392034;32;32962;-83
2023/01/15 01:49:29;;;;;;;1.85;1.20;;;;;;;3.70;73.66;100198.84;4385644;32;34382;-83
2023/01/15 01:52:12;;;;;;;0.25;0.25;;;;;;;3.78;73.05;100185.72;4383632;32;34294;-82
2023/01/15 01:54:40;;;;;;;1.48;0.73;;;;;;;3.74;73.53;100177.06;4391892;32;33573;-83
2023/01/15 01:57:08;;;;;;;2.08;1.95;;;;;;;4.12;71.84;100170.56;4397449;32;33489;-83
2023/01/15 01:59:36;;;;;;;1.92;1.75;;;;;;;4.20;71.01;100171.34;4402767;32;34660;-84
2023/01/15 02:02:05;;;;;;;0.57;0.57;;;;;;;4.30;70.29;100162.50;4390956;32;35444;-82
2023/01/15 02:04:33;;;;;;;1.00;0.98;;;;;;;4.32;70.68;100155.50;4399207;32;32561;-82
2023/01/15 02:07:02;;;;;;;0.43;0.43;;;;;;;4.12;71.51;100152.25;4390913;32;33180;-83
2023/01/15 02:09:30;;;;;;;0.95;0.95;;;;;;;3.52;73.93;100144.22;4402865;32;34515;-82
2023/01/15 02:12:05;;;;;;;0.75;0.75;;;;;;;3.80;72.70;100150.03;4414215;32;34248;-82
2023/01/15 02:15:03;;;;;;;0.85;0.37;;;;;;;3.92;72.26;100130.72;4401225;32;32539;-82
2023/01/15 02:17:57;;;;;;;0.93;0.52;;;;;;;3.57;72.85;100132.84;4399981;32;34177;-82
2023/01/15 02:20:53;;;;;;;0.68;0.68;;;;;;;3.53;73.61;100122.44;4373133;32;34024;-82
2023/01/15 02:23:52;;;;;;;0.10;0.10;;;;;;;3.23;74.82;100132.28;4397583;32;32799;-82
2023/01/15 02:26:22;;;;;;;0.47;0.47;;;;;;;3.56;73.40;100131.13;4400988;32;32665;-82
2023/01/15 02:28:53;;;;;;;0.68;0.68;;;;;;;3.40;73.84;100124.28;4422107;32;33444;-82
2023/01/15 02:31:33;;;;;;;0.08;0.08;;;;;;;3.59;73.37;100125.84;4401791;32;33022;-82
2023/01/15 02:34:09;;;;;;;0.60;0.60;;;;;;;3.75;72.51;100121.34;4393708;32;32861;-82
2023/01/15 02:36:40;;;;;;;0.20;0.20;;;;;;;3.69;72.82;100116.16;4397343;32;32157;-83
2023/01/15 02:39:12;;;;;;;1.17;0.88;;;;;;;3.90;72.46;100124.66;4405108;32;33828;-84
2023/01/15 02:41:46;;;;;;;1.05;1.02;;;;;;;4.07;71.42;100120.94;4403148;32;33916;-83
2023/01/15 02:44:17;;;;;;;2.42;1.33;;;;;;;3.89;71.88;100118.56;4401799;32;32832;-84
2023/01/15 02:46:46;;;;;;;1.45;1.35;;;;;;;4.13;71.52;100122.66;4404573;32;33331;-83
2023/01/15 02:49:17;;;;;;;0.00;0.00;;;;;;;4.00;72.04;100108.84;4401406;32;33654;-84
2023/01/15 02:52:06;;;;;;;0.03;0.03;;;;;;;3.92;71.92;100109.81;4404838;32;33813;-84
2023/01/15 02:54:39;;;;;;;1.08;1.08;;;;;;;4.05;72.05;100103.56;4401777;32;32788;-84
2023/01/15 02:57:08;;;;;;;0.28;0.20;;;;;;;3.63;73.27;100108.41;4401576;32;33023;-85
2023/01/15 02:59:39;;;;;;;1.58;1.33;;;;;;;3.83;72.61;100101.22;4391632;32;32950;-84
2023/01/15 03:02:15;;;;;;;0.27;0.27;;;;;;;3.87;72.56;100103.78;4405335;32;33716;-84
2023/01/15 03:04:58;;;;;;;1.08;0.90;;;;;;;3.46;73.64;100097.25;4403184;32;32531;-83
2023/01/15 03:07:34;;;;;;;0.95;0.88;;;;;;;3.35;74.17;100094.75;4404412;32;33299;-83
2023/01/15 03:10:03;;;;;;;0.98;0.95;;;;;;;3.38;74.36;100086.06;4388016;32;33585;-84
2023/01/15 03:13:03;;;;;;;0.95;0.95;;;;;;;3.81;72.62;100084.69;4404394;32;34456;-83
2023/01/15 03:18:35;;;;;;;5.85;1.20;;;;;;;3.89;72.26;100097.66;4422704;32;33434;-85
2023/01/15 03:21:07;;;;;;;3.70;0.43;;;;;;;3.68;73.14;100090.94;4402516;32;33907;-85
2023/01/15 03:23:38;;;;;;;2.55;2.35;;;;;;;3.57;73.32;100080.63;4406397;32;33161;-83
2023/01/15 03:26:06;;;;;;;1.15;0.98;;;;;;;3.70;72.61;100085.69;4414643;32;35205;-83
2023/01/15 03:28:35;;;;;;;0.40;0.40;;;;;;;3.22;74.27;100078.34;4388335;32;32666;-83
2023/01/15 03:31:03;;;;;;;0.30;0.30;;;;;;;3.34;73.98;100072.16;4402230;32;32882;-84
2023/01/15 03:33:33;;;;;;;1.42;1.42;;;;;;;3.51;73.92;100071.97;4401806;32;34781;-83
2023/01/15 03:36:01;;;;;;;0.45;0.45;;;;;;;3.70;73.45;100070.87;4377816;32;33257;-84
2023/01/15 03:38:34;;;;;;;0.28;0.28;;;;;;;4.10;71.76;100079.12;4395371;32;32241;-83
2023/01/15 03:41:05;;;;;;;;;;;;;;;3.44;73.78;100072.94;4391404;32;32745;-83
2023/01/15 03:43:42;;;;;;;0.52;0.52;;;;;;;3.64;73.26;100063.13;4403303;32;33268;-83
2023/01/15 03:46:30;;;;;;;0.85;0.85;;;;;;;3.53;74.01;100068.47;4419506;32;34142;-84
2023/01/15 03:49:06;;;;;;;0.10;0.10;;;;;;;3.76;73.04;100070.84;4404083;32;33310;-83
2023/01/15 03:51:49;;;;;;;0.45;0.45;;;;;;;3.61;73.57;100071.00;4394518;32;33146;-84
2023/01/15 03:54:23;;;;;;;0.68;0.68;;;;;;;3.59;73.97;100077.97;4422343;32;34753;-83
2023/01/15 03:56:54;;;;;;;0.00;0.00;;;;;;;3.39;74.14;100064.28;4373454;32;35872;-83
2023/01/15 03:59:26;;;;;;;0.75;0.35;;;;;;;3.25;74.92;100062.66;4401574;32;34036;-84
2023/01/15 04:01:54;;;;;;;1.73;1.65;;;;;;;3.24;74.98;100055.72;4386890;32;33458;-83
2023/01/15 04:04:24;;;;;;;1.00;1.00;;;;;;;3.48;74.29;100052.00;4393530;32;34749;-83
2023/01/15 04:06:53;;;;;;;6.10;0.68;;;;;;;3.54;74.10;100056.28;4378513;32;33728;-83
2023/01/15 04:09:21;;;;;;;0.03;0.03;;;;;;;3.46;74.74;100065.94;4386646;32;32635;-82
2023/01/15 04:11:50;;;;;;;0.90;0.90;;;;;;;3.27;75.38;100060.91;4381428;32;32647;-82
2023/01/15 04:14:18;;;;;;;0.77;0.77;;;;;;;3.30;74.98;100068.72;4387713;32;33075;-83
2023/01/15 04:16:46;;;;;;;0.55;0.55;;;;;;;3.64;74.34;100060.50;4387589;32;32869;-84
2023/01/15 04:19:14;;;;;;;4.80;2.78;;;;;;;3.54;74.32;100064.97;4393189;32;33181;-84
2023/01/15 04:21:43;;;;;;;1.02;1.02;;;;;;;3.98;72.60;100060.09;4395574;32;33808;-83
2023/01/15 04:24:11;;;;;;;1.77;1.10;;;;;;;3.14;76.36;100059.31;4392301;32;34235;-84
2023/01/15 04:26:38;;;;;;;0.85;0.85;;;;;;;3.83;73.96;100048.97;4375132;32;32959;-83
2023/01/15 04:29:06;;;;;;;0.52;0.52;;;;;;;3.55;74.87;100050.16;4375041;32;32559;-84
2023/01/15 04:31:35;;;;;;;0.50;0.50;;;;;;;3.76;74.15;100044.72;4392746;32;32903;-83
2023/01/15 04:34:03;;;;;;;0.65;0.65;;;;;;;4.21;72.42;100046.75;4391343;32;34729;-85
2023/01/15 04:36:34;;;;;;;0.80;0.80;;;;;;;3.99;72.70;100047.03;4390421;32;34596;-85
2023/01/15 04:39:03;;;;;;;0.10;0.10;;;;;;;4.00;72.50;100038.31;4392450;32;33189;-85
2023/01/15 04:44:17;;;;;;;0.10;0.10;;;;;;;3.52;75.42;100038.03;4381584;32;33663;-85
2023/01/15 04:46:46;;;;;;;0.45;0.45;;;;;;;3.48;75.05;100040.69;4391228;32;33540;-85
2023/01/15 04:49:15;;;;;;;0.20;0.20;;;;;;;3.37;75.77;100046.03;4380335;32;32253;-85
2023/01/15 04:51:43;;;;;;;0.43;0.43;;;;;;;3.75;74.38;100047.31;4372383;32;34221;-85
2023/01/15 04:54:13;;;;;;;1.05;1.05;;;;;;;3.91;73.73;100037.56;4377255;32;33471;-85
2023/01/15 04:56:43;;;;;;;2.58;1.75;;;;;;;3.85;73.65;100034.16;4389495;32;33675;-86
2023/01/15 04:59:13;;;;;;;1.02;0.70;;;;;;;3.91;73.30;100038.44;4392903;32;32927;-85
2023/01/15 05:01:40;;;;;;;0.70;0.70;;;;;;;3.80;74.07;100040.31;4393194;32;33922;-85
2023/01/15 05:04:24;;;;;;;2.45;1.95;;;;;;;3.83;73.75;100028.06;4383577;32;34422;-85
2023/01/15 05:06:52;;;;;;;0.20;0.20;;;;;;;4.23;72.41;100026.69;4386397;32;32942;-84
2023/01/15 05:09:19;;;;;;;1.65;1.33;;;;;;;3.70;74.18;100034.31;4373570;32;31990;-84
2023/01/15 05:11:49;;;;;;;0.68;0.68;;;;;;;4.08;72.74;100025.12;4380114;32;32330;-85
2023/01/15 05:14:16;;;;;;;0.30;0.30;;;;;;;3.96;73.19;100026.16;4379845;32;33371;-84
2023/01/15 05:16:43;;;;;;;0.00;0.00;;;;;;;4.12;72.33;100032.03;4393012;32;32899;-85
2023/01/15 05:19:11;;;;;;;0.43;0.43;;;;;;;3.54;74.96;100028.41;4392176;32;33006;-85
2023/01/15 05:21:40;;;;;;;0.08;0.08;;;;;;;3.76;74.21;100018.59;4391614;32;34023;-85
2023/01/15 05:24:12;;;;;;;1.12;1.12;;;;;;;3.88;73.79;100017.56;4367521;32;32630;-84
2023/01/15 05:26:40;;;;;;;1.27;1.10;;;;;;;3.57;74.62;100009.25;4391812;32;33890;-84
2023/01/15 05:29:09;;;;;;;1.08;1.02;;;;;;;3.66;74.67;100006.53;4386455;32;32972;-85
2023/01/15 05:31:36;;;;;;;1.90;1.80;;;;;;;3.58;75.18;100010.97;4391222;32;32576;-84
2023/01/15 05:34:05;;;;;;;2.67;2.15;;;;;;;3.47;75.61;99995.47;4388806;32;34726;-84
2023/01/15 05:36:32;;;;;;;1.30;1.25;;;;;;;3.65;74.90;99993.47;4392216;32;34215;-84
2023/01/15 05:39:00;;;;;;;1.23;1.23;;;;;;;3.75;74.64;99989.88;4392065;32;33385;-84
2023/01/15 05:44:24;;;;;;;0.90;0.85;;;;;;;3.83;74.52;99990.62;4392112;32;34671;-85
2023/01/15 05:46:54;;;;;;;0.55;0.55;;;;;;;3.72;75.08;99990.78;4391553;32;33767;-85
2023/01/15 05:49:25;;;;;;;0.47;0.47;;;;;;;3.83;74.49;99983.66;4391395;32;32843;-85
2023/01/15 05:51:54;;;;;;;0.53;0.33;;;;;;;3.89;74.46;99960.94;4391704;32;34661;-85
2023/01/15 05:54:26;;;;;;;0.75;0.75;;;;;;;3.51;76.48;99975.38;4392617;32;34801;-85
2023/01/15 05:56:55;;;;;;;0.00;0.00;;;;;;;3.89;74.79;99971.41;4385245;32;33847;-83
2023/01/15 05:59:25;;;;;;;0.40;0.40;;;;;;;3.18;76.98;99974.91;4378077;32;32666;-83
2023/01/15 06:01:53;;;;;;;3.22;1.45;;;;;;;3.63;76.13;99959.56;4374048;32;32707;-83
2023/01/15 06:04:21;;;;;;;0.98;0.98;;;;;;;3.68;75.04;99968.19;4370002;32;33008;-83
2023/01/15 06:06:50;;;;;;;1.33;1.23;;;;;;;3.72;75.07;99964.66;4363943;32;33016;-83
2023/01/15 06:09:18;;;;;;;0.82;0.82;;;;;;;4.01;75.00;99955.56;4389105;32;33951;-83
2023/01/15 06:11:46;;;;;;;4.18;0.60;;;;;;;3.59;76.03;99953.50;4376471;32;33249;-83
2023/01/15 06:14:14;;;;;;;0.88;0.85;;;;;;;3.65;76.00;99962.16;4374138;32;33242;-83
2023/01/15 06:16:42;;;;;;;0.98;0.98;;;;;;;4.11;75.08;99949.31;4362581;32;33669;-83
2023/01/15 06:19:10;;;;;;;0.40;0.40;;;;;;;4.21;74.81;99947.41;4376126;32;32563;-83
2023/01/15 06:21:38;;;;;;;0.60;0.52;;;;;;;4.18;74.48;99950.06;4363729;32;32082;-83
2023/01/15 06:24:07;;;;;;;0.52;0.52;;;;;;;3.69;76.33;99959.47;4376984;32;33968;-83
2023/01/15 06:26:35;;;;;;;1.00;1.00;;;;;;;4.01;76.05;99960.78;4387748;32;34226;-83
2023/01/15 06:29:02;;;;;;;1.98;1.87;;;;;;;4.21;75.17;99950.91;4374998;32;31897;-83
2023/01/15 06:31:31;;;;;;;1.27;1.27;;;;;;;3.88;76.55;99960.09;4374317;32;33657;-83
2023/01/15 06:33:59;;;;;;;1.48;1.37;;;;;;;3.83;76.64;99960.16;4364458;32;33081;-83
2023/01/15 06:36:27;;;;;;;0.50;0.43;;;;;;;4.23;75.23;99954.38;4361723;32;32837;-83
2023/01/15 06:38:55;;;;;;;7.07;1.08;;;;;;;4.12;76.02;99959.72;4377241;32;34245;-83
2023/01/15 06:47:20;;;;;;;0.98;0.93;;;;;;;4.13;76.02;99947.56;4373097;32;33255;-83
2023/01/15 06:49:53;;;;;;;1.58;1.48;;;;;;;4.63;74.67;99951.09;4369405;32;32329;-83
2023/01/15 06:52:23;;;;;;;0.20;0.20;;;;;;;4.58;74.56;99942.47;4363815;32;34156;-83
2023/01/15 06:54:51;;;;;;;0.37;0.37;;;;;;;4.85;74.10;99941.97;4377261;32;32912;-83
2023/01/15 06:57:19;;;;;;;0.77;0.62;;;;;;;4.61;74.92;99947.66;4401881;32;33853;-83
2023/01/15 06:59:48;;;;;;;0.08;0.08;;;;;;;4.64;74.75;99937.12;4392701;32;33415;-83
2023/01/15 07:02:16;;;;;;;1.35;0.98;;;;;;;5.17;72.93;99932.66;4399401;32;33271;-83
2023/01/15 07:04:45;;;;;;;0.62;0.62;;;;;;;4.84;74.22;99937.66;4384370;32;32798;-83
2023/01/15 07:07:15;;;;;;;0.82;0.82;;;;;;;4.62;75.08;99934.53;4394150;32;33128;-83
2023/01/15 07:09:42;;;;;;;0.62;0.62;;;;;;;4.75;75.12;99931.72;4379638;32;31603;-83
2023/01/15 07:12:10;;;;;;;1.30;1.30;;;;;;;4.77;74.46;99941.25;4382817;32;32821;-83
2023/01/15 07:14:38;;;;;;;0.52;0.52;;;;;;;4.68;75.12;99946.63;4403283;32;34643;-83
2023/01/15 07:17:06;;;;;;;2.87;2.65;;;;;;;4.78;74.81;99945.59;4405142;32;31582;-84
2023/01/15 07:19:34;;;;;;;1.23;1.17;;;;;;;5.29;73.12;99937.66;4407655;32;34030;-84
2023/01/15 07:22:03;;;;;;;0.75;0.75;;;;;;;5.18;73.64;99938.78;4391209;32;32974;-84
2023/01/15 07:24:31;;;;;;;1.35;1.25;;;;;;;5.42;72.66;99938.28;4394048;32;32530;-84
2023/01/15 07:26:59;;;;;;;0.45;0.45;;;;;;;5.39;72.96;99933.09;4384929;32;34871;-84
2023/01/15 07:29:27;;;;;;;0.85;0.85;;;;;;;5.19;73.53;99936.12;4393653;32;33618;-84
2023/01/15 07:31:57;;;;;;;0.35;0.32;;;;;;;4.98;74.75;99931.28;4394326;32;34581;-84
2023/01/15 07:34:25;;;;;;;0.82;0.82;;;;;;;4.92;74.95;99931.41;4403564;32;34696;-84
2023/01/15 07:36:52;;;;;;;2.20;1.42;;;;;;;5.19;74.31;99925.63;4382946;32;32831;-83
2023/01/15 07:39:20;;;;;;;4.05;1.75;;;;;;;4.82;75.69;99925.47;4407420;32;32376;-84
2023/01/15 07:50:15;;;;;;;1.08;1.08;;;;;;;5.29;74.48;99916.72;4391069;32;32536;-84
2023/01/15 07:52:42;;;;;;;2.22;1.73;;;;;;;5.21;74.51;99921.22;4404996;32;33823;-84
2023/01/15 07:55:13;;;;;;;1.67;1.35;;;;;;;5.37;74.21;99912.19;4382808;32;32996;-84
2023/01/15 07:57:41;;;;;;;1.33;1.30;;;;;;;5.47;74.06;99914.59;4398696;32;32500;-85
2023/01/15 08:00:12;;;;;;;1.90;1.17;;;;;;;5.24;74.80;99921.19;4392892;32;32231;-84
2023/01/15 08:02:40;;;;;;;4.75;2.92;;;;;;;5.26;74.79;99914.12;4398527;32;32769;-84
2023/01/15 08:05:08;;;;;;;3.03;1.70;;;;;;;4.85;76.63;99904.50;4390065;32;33904;-84
2023/01/15 08:07:37;;;;;;;0.45;0.45;;;;;;;5.08;75.88;99909.25;4396832;32;30619;-84
2023/01/15 08:10:06;;;;;;;0.80;0.80;;;;;;;5.69;73.26;99892.28;4396786;32;32690;-84
2023/01/15 08:15:24;;;;;;;0.43;0.43;;;;;;;5.17;75.34;99906.47;4406057;32;33637;-84
2023/01/15 08:17:52;;;;;;;1.65;1.55;;;;;;;4.97;76.79;99908.63;4404852;32;32619;-85
2023/01/15 08:20:23;;;;;;;0.62;0.62;;;;;;;5.69;74.46;99901.91;4414869;32;32309;-84
2023/01/15 08:22:51;;;;;;;3.05;1.23;;;;;;;5.52;74.96;99910.13;4408236;32;34732;-84
2023/01/15 08:25:22;;;;;;;5.18;2.17;;;;;;;5.80;74.07;99903.41;4403059;32;33304;-85
2023/01/15 08:27:50;;;;;;;2.00;1.80;;;;;;;5.33;75.34;99907.91;4396446;32;33893;-84
2023/01/15 08:30:23;;;;;;;2.95;2.67;;;;;;;5.73;74.43;99906.16;4395953;32;34027;-85
2023/01/15 08:32:51;;;;;;;2.92;2.55;;;;;;;5.80;73.62;99903.41;4396822;32;35853;-84
2023/01/15 08:35:19;;;;;;;3.87;2.58;;;;;;;6.04;73.01;99906.38;4393716;32;32157;-85
2023/01/15 08:37:47;;;;;;;3.25;2.35;;;;;;;6.08;72.95;99908.03;4397734;32;32748;-85
2023/01/15 08:40:15;;;;;;;5.12;4.68;;;;;;;6.16;72.74;99904.31;4407161;32;33382;-85
2023/01/15 08:42:42;;;;;;;2.33;2.12;;;;;;;6.25;72.30;99911.09;4397970;32;31823;-86
2023/01/15 08:45:10;;;;;;;2.47;2.37;;;;;;;6.17;73.20;99899.94;4395379;32;32612;-84
2023/01/15 08:47:38;;;;;;;1.00;1.00;;;;;;;5.99;73.40;99897.75;4394527;32;32968;-84
2023/01/15 08:50:07;;;;;;;0.20;0.20;;;;;;;6.19;72.75;99892.91;4390955;32;31817;-85
2023/01/15 08:52:36;;;;;;;4.47;3.25;;;;;;;5.93;74.26;99892.66;4382925;32;32785;-84
2023/01/15 08:55:05;;;;;;;2.50;0.88;;;;;;;5.72;75.13;99897.47;4402587;32;33068;-85
2023/01/15 08:57:33;;;;;;;0.70;0.70;;;;;;;5.93;74.07;99897.88;4388947;32;33393;-85
2023/01/15 09:00:00;;;;;;;1.58;1.15;;;;;;;6.00;73.98;99889.84;4394246;32;33347;-84
2023/01/15 09:02:31;;;;;;;12.77;4.03;;;;;;;6.23;72.68;99891.94;4396385;32;34199;-84
2023/01/15 09:04:58;;;;;;;2.90;2.67;;;;;;;6.10;73.46;99886.13;4376869;32;34228;-84
2023/01/15 09:07:26;;;;;;;2.00;1.90;;;;;;;6.32;72.26;99881.22;4391795;32;33938;-84
2023/01/15 09:09:54;;;;;;;2.95;2.75;;;;;;;5.99;73.64;99882.91;4387908;32;31677;-85
2023/01/15 09:12:23;;;;;;;3.55;3.25;;;;;;;5.71;74.25;99877.41;4381610;32;33264;-84
2023/01/15 09:14:51;;;;;;;1.33;1.23;;;;;;;6.07;73.18;99870.44;4400963;32;32595;-84
2023/01/15 09:17:32;;;;;;;3.03;1.58;;;;;;;6.38;72.34;99867.09;4390598;32;32955;-84
2023/01/15 09:19:59;;;;;;;1.77;1.67;;;;;;;6.22;72.27;99863.09;4393805;32;33429;-84
2023/01/15 09:22:29;;;;;;;3.05;2.87;;;;;;;6.28;72.68;99853.34;4388457;32;34108;-84
2023/01/15 09:24:57;;;;;;;1.15;1.15;;;;;;;6.53;71.40;99850.09;4389026;32;33932;-85
2023/01/15 09:27:26;;;;;;;1.35;1.25;;;;;;;6.20;72.20;99842.19;4402201;32;32935;-84
2023/01/15 09:29:55;;;;;;;5.40;2.35;;;;;;;6.35;71.60;99844.41;4406031;32;32295;-84
2023/01/15 09:32:23;;;;;;;0.85;0.85;;;;;;;5.90;72.61;99842.00;4391802;32;33762;-85
2023/01/15 09:34:51;;;;;;;1.95;1.85;;;;;;;5.79;73.71;99844.03;4388369;32;33535;-84
2023/01/15 09:37:18;;;;;;;0.40;0.40;;;;;;;6.14;72.64;99831.84;4390640;32;32497;-85
2023/01/15 09:39:47;;;;;;;2.28;1.45;;;;;;;6.38;72.16;99825.97;4390190;32;32561;-84
2023/01/15 09:42:42;;;;;;;2.10;2.00;;;;;;;6.41;72.10;99817.19;4400874;32;33198;-84
2023/01/15 09:45:29;;;;;;;3.90;2.45;;;;;;;6.20;72.62;99817.72;4394639;32;33613;-84
2023/01/15 09:48:18;;;;;;;3.03;1.55;;;;;;;6.19;73.06;99811.63;4388766;32;32740;-82
2023/01/15 09:51:02;;;;;;;4.37;2.28;;;;;;;6.41;72.19;99812.78;4400759;32;33579;-84
2023/01/15 09:53:45;;;;;;;4.03;1.37;;;;;;;6.25;72.25;99800.97;4396426;32;33327;-84
2023/01/15 09:56:22;;;;;;;3.25;1.15;;;;;;;6.36;72.04;99803.31;4402481;32;33877;-82
2023/01/15 09:58:51;;;;;;;1.35;1.27;;;;;;;6.25;73.18;99800.97;4394167;32;33830;-82
2023/01/15 10:01:28;;;;;;;2.55;1.85;;;;;;;6.51;72.24;99791.56;4401061;32;32836;-85
2023/01/15 10:04:12;;;;;;;0.95;0.95;;;;;;;6.51;72.23;99783.69;4395354;32;33901;-86
2023/01/15 10:06:54;;;;;;;4.05;1.70;;;;;;;6.34;72.33;99776.28;4395616;32;33368;-85
2023/01/15 10:09:30;;;;;;;2.10;1.87;;;;;;;6.37;72.02;99778.81;4394734;32;32654;-85
2023/01/15 10:15:01;;;;;;;2.40;2.25;;;;;;;6.55;71.81;99761.69;4398840;32;32738;-86
2023/01/15 10:17:40;;;;;;;1.65;1.55;;;;;;;6.83;70.96;99751.28;4382535;32;33224;-86
2023/01/15 10:20:23;;;;;;;2.50;1.12;;;;;;;7.11;70.33;99739.03;4401658;32;33996;-85
2023/01/15 10:23:28;;;;;;;2.95;1.70;;;;;;;7.12;70.38;99727.66;4404168;32;33275;-85
2023/01/15 10:26:17;;;;;;;0.77;0.77;;;;;;;6.96;70.88;99736.88;4411054;32;32796;-87
2023/01/15 10:29:00;;;;;;;2.22;1.85;;;;;;;6.82;71.47;99739.91;4400915;32;34723;-86
2023/01/15 10:31:49;;;;;;;0.77;0.77;;;;;;;6.99;71.17;99726.31;4417763;32;33821;-87
2023/01/15 10:34:35;;;;;;;0.40;0.40;;;;;;;7.21;70.69;99717.75;4405861;32;33762;-87
2023/01/15 10:37:40;;;;;;;0.55;0.55;;;;;;;7.44;69.29;99710.87;4405988;32;32832;-87
2023/01/15 10:40:18;;;;;;;1.77;1.55;;;;;;;7.22;70.12;99701.97;4384932;32;34495;-87
2023/01/15 10:43:24;;;;;;;0.35;0.35;;;;;;;7.37;69.25;99701.47;4384451;32;30837;-87
2023/01/15 10:45:55;;;;;;;1.85;1.75;;;;;;;7.74;67.95;99695.03;4398943;32;32625;-85
2023/01/15 10:48:25;;;;;;;0.80;0.80;;;;;;;7.46;69.56;99681.09;4400797;32;33197;-87
2023/01/15 10:50:53;;;;;;;5.03;3.20;;;;;;;7.58;67.82;99676.25;4402482;32;33454;-87
2023/01/15 10:53:26;;;;;;;1.02;0.93;;;;;;;7.84;67.19;99677.16;4396231;32;30521;-87
2023/01/15 10:56:04;;;;;;;3.45;1.65;;;;;;;7.86;67.40;99677.97;4400287;32;33762;-87
2023/01/15 10:59:08;;;;;;;2.10;1.83;;;;;;;7.83;66.84;99673.69;4391588;32;34376;-87
2023/01/15 11:01:36;;;;;;;0.37;0.37;;;;;;;8.12;66.46;99659.50;4391117;32;32856;-87
2023/01/15 11:04:04;;;;;;;1.45;1.35;;;;;;;7.96;66.59;99653.91;4378231;32;33173;-87
2023/01/15 11:06:32;;;;;;;0.65;0.65;;;;;;;8.35;66.03;99647.25;4381953;32;33043;-86
2023/01/15 11:09:00;;;;;;;3.83;3.35;;;;;;;8.50;64.91;99635.34;4364515;32;32666;-87
2023/01/15 11:20:31;;;;;;;0.40;0.40;;;;;;;7.64;67.00;99626.16;4394370;32;33996;-86
2023/01/15 11:23:08;;;;;;;3.90;2.47;;;;;;;8.24;65.43;99621.38;4389551;32;35931;-87
2023/01/15 11:25:38;;;;;;;4.12;1.98;;;;;;;7.98;66.80;99609.19;4390311;32;33153;-87
2023/01/15 11:28:08;;;;;;;1.10;0.75;;;;;;;8.26;65.41;99608.16;4391761;32;33728;-86
2023/01/15 11:30:44;;;;;;;0.45;0.45;;;;;;;8.18;65.34;99619.81;4390740;32;33025;-86
2023/01/15 11:33:23;;;;;;;1.08;1.08;;;;;;;8.16;65.54;99602.38;4392231;32;33174;-87
2023/01/15 11:35:57;;;;;;;0.82;0.82;;;;;;;8.10;65.79;99592.09;4389908;32;31862;-86
2023/01/15 11:38:30;;;;;;;4.47;3.72;;;;;;;8.49;64.24;99595.00;4377215;32;32339;-85
2023/01/15 11:41:00;;;;;;;2.65;1.45;;;;;;;8.97;63.07;99583.47;4408670;32;34515;-86
2023/01/15 11:52:09;;;;;;;4.62;4.20;;;;;;;8.40;64.69;99550.63;4381433;32;33269;-86
2023/01/15 11:54:41;;;;;;;1.75;1.62;;;;;;;8.19;65.74;99536.50;4384011;32;33072;-87
2023/01/15 11:57:10;;;;;;;2.67;1.83;;;;;;;8.26;65.58;99524.84;4392739;32;34568;-86
2023/01/15 11:59:37;;;;;;;6.43;1.15;;;;;;;8.52;65.63;99525.62;4404192;32;32132;-86
2023/01/15 12:02:34;;;;;;;1.10;0.90;;;;;;;8.99;62.55;99521.06;4398603;32;33816;-86
2023/01/15 12:05:04;;;;;;;0.25;0.25;;;;;;;8.93;62.88;99505.53;4399457;32;33720;-86
2023/01/15 12:07:37;;;;;;;2.62;1.42;;;;;;;8.93;63.53;99506.37;4405811;32;33439;-86
2023/01/15 12:11:02;;;;;;;0.62;0.62;;;;;;;9.06;62.88;99504.06;4403534;32;32795;-86
2023/01/15 12:13:27;;;;;;;0.85;0.85;;;;;;;9.22;62.59;99497.25;4401533;32;33140;-86
2023/01/15 12:16:13;;;;;;;3.85;2.08;;;;;;;8.81;63.63;99512.16;4399780;32;34215;-87
2023/01/15 12:19:06;;;;;;;5.78;2.42;;;;;;;8.22;65.05;99515.38;4396156;32;33255;-87
2023/01/15 12:21:33;;;;;;;;;;;;;;;8.55;63.64;99515.84;4384198;32;32169;-86
2023/01/15 12:24:16;;;;;;;1.55;1.45;;;;;;;8.78;63.86;99512.25;4399709;32;32535;-87
2023/01/15 12:27:15;;;;;;;0.50;0.50;;;;;;;8.61;63.01;99514.75;4407804;32;34045;-87
2023/01/15 12:29:47;;;;;;;1.15;1.05;;;;;;;8.90;62.73;99503.88;4399694;32;33011;-85
2023/01/15 12:32:37;;;;;;;1.10;1.02;;;;;;;8.98;61.63;99496.53;4391298;32;33045;-86
2023/01/15 12:35:14;;;;;;;0.30;0.25;;;;;;;8.87;62.64;99501.34;4394197;32;34342;-86
2023/01/15 12:37:51;;;;;;;1.40;1.17;;;;;;;9.06;62.50;99501.44;4400686;32;33041;-86
2023/01/15 12:40:29;;;;;;;0.30;0.30;;;;;;;9.01;62.10;99495.53;4396277;32;32849;-86
2023/01/15 12:45:47;;;;;;;1.60;1.48;;;;;;;9.32;61.48;99488.94;4405372;32;33607;-86
2023/01/15 12:48:25;;;;;;;1.85;1.75;;;;;;;9.09;61.27;99489.94;4386739;32;33863;-86
2023/01/15 12:50:58;;;;;;;0.88;0.88;;;;;;;9.58;60.11;99487.78;4402009;32;32351;-85
2023/01/15 12:53:52;;;;;;;0.60;0.60;;;;;;;9.71;59.95;99481.91;4390057;32;33016;-85
2023/01/15 12:56:44;;;;;;;1.27;1.27;;;;;;;9.69;59.20;99475.00;4390076;32;30892;-86